createdAt,value
2022-10-22T00:02:58.638Z,98.79
2022-10-22T00:06:01.297Z,97.26
2022-10-22T00:09:04.384Z,97.31
2022-10-22T00:12:07.654Z,95.96
2022-10-22T00:15:13.391Z,93.87
2022-10-22T00:18:17.385Z,94.02
2022-10-22T00:21:20.086Z,93.74
2022-10-22T00:24:22.766Z,94.25
2022-10-22T00:27:25.533Z,94.19
2022-10-22T00:30:28.169Z,94.43
2022-10-22T00:33:32.175Z,95.19
2022-10-22T00:36:35.117Z,95.88
2022-10-22T00:39:37.763Z,96.21
2022-10-22T00:42:40.531Z,95.47
2022-10-22T00:45:49.641Z,94.96
2022-10-22T00:49:00.499Z,94.03
2022-10-22T00:52:06.582Z,94.21
2022-10-22T00:55:15.529Z,94.61
2022-10-22T00:58:23.060Z,94.23
2022-10-22T01:01:35.552Z,93.89
2022-10-22T01:04:43.933Z,94.06
2022-10-22T01:07:56.757Z,94.20
2022-10-22T01:11:13.297Z,94.11
2022-10-22T01:14:26.845Z,94.11
2022-10-22T01:17:41.825Z,94.24
2022-10-22T01:21:13.189Z,94.27
2022-10-22T01:24:45.103Z,93.68
2022-10-22T01:28:02.697Z,93.66
2022-10-22T01:31:12.951Z,93.06
2022-10-22T01:34:21.514Z,92.60
2022-10-22T01:37:31.883Z,92.85
2022-10-22T01:40:39.308Z,93.28
2022-10-22T01:43:45.436Z,93.43
2022-10-22T01:46:56.663Z,92.77
2022-10-22T01:50:21.468Z,92.55
2022-10-22T01:53:36.578Z,92.44
2022-10-22T01:57:01.090Z,91.36
2022-10-22T02:00:12.259Z,91.83
2022-10-22T02:03:25.812Z,93.35
2022-10-22T02:06:35.762Z,93.93
2022-10-22T02:09:44.078Z,94.03
2022-10-22T02:12:55.036Z,93.80
2022-10-22T02:16:03.105Z,94.27
2022-10-22T02:19:18.963Z,95.21
2022-10-22T02:22:26.244Z,95.48
2022-10-22T02:25:35.323Z,94.75
2022-10-22T02:28:50.876Z,95.10
2022-10-22T02:32:01.132Z,95.34
2022-10-22T02:35:10.630Z,95.73
2022-10-22T02:38:18.675Z,95.55
2022-10-22T02:41:25.663Z,95.48
2022-10-22T02:44:34.776Z,95.72
2022-10-22T02:47:40.956Z,94.54
2022-10-22T02:50:52.249Z,94.25
2022-10-22T02:53:58.757Z,94.31
2022-10-22T02:57:05.617Z,94.00
2022-10-22T03:00:15.891Z,94.55
2022-10-22T03:03:24.379Z,95.31
2022-10-22T03:06:32.875Z,95.00
2022-10-22T03:09:39.783Z,95.05
2022-10-22T03:12:46.015Z,94.83
2022-10-22T03:15:54.256Z,94.07
2022-10-22T03:19:02.632Z,94.60
2022-10-22T03:22:16.251Z,95.23
2022-10-22T03:25:27.162Z,95.57
2022-10-22T03:28:36.505Z,96.04
2022-10-22T03:31:42.586Z,96.71
2022-10-22T03:34:49.644Z,97.34
2022-10-22T03:37:58.305Z,97.16
2022-10-22T03:41:04.700Z,97.87
2022-10-22T03:44:12.420Z,98.40
2022-10-22T03:47:19.211Z,99.05
2022-10-22T03:50:24.721Z,99.51
2022-10-22T03:53:33.448Z,99.96
2022-10-22T03:56:41.541Z,99.81
2022-10-22T03:59:51.321Z,100.00
2022-10-22T04:02:56.403Z,100.00
2022-10-22T04:06:04.519Z,100.00
2022-10-22T04:09:12.766Z,100.00
2022-10-22T04:12:35.705Z,100.00
2022-10-22T04:16:07.612Z,100.00
2022-10-22T04:19:17.543Z,100.00
2022-10-22T04:22:25.279Z,100.00
2022-10-22T04:25:35.181Z,99.72
2022-10-22T04:28:47.495Z,98.49
2022-10-22T04:31:58.875Z,97.27
2022-10-22T04:35:06.066Z,97.09
2022-10-22T04:38:14.865Z,97.15
2022-10-22T04:41:26.695Z,97.06
2022-10-22T04:44:35.417Z,96.49
2022-10-22T04:47:43.698Z,95.59
2022-10-22T04:50:49.936Z,95.48
2022-10-22T04:54:03.366Z,94.43
2022-10-22T04:57:16.772Z,94.22
2022-10-22T05:00:23.488Z,93.13
2022-10-22T05:03:32.794Z,93.27
2022-10-22T05:06:45.883Z,93.26
2022-10-22T05:09:51.907Z,92.98
2022-10-22T05:13:01.534Z,93.79
2022-10-22T05:16:23.650Z,94.60
2022-10-22T05:19:38.762Z,94.04
2022-10-22T05:26:11.378Z,94.34
2022-10-22T05:29:29.343Z,94.50
2022-10-22T05:32:41.153Z,95.18
2022-10-22T05:36:12.938Z,95.09
2022-10-22T05:39:26.557Z,95.71
2022-10-22T05:42:35.811Z,95.70
2022-10-22T05:46:05.718Z,96.67
2022-10-22T05:49:19.286Z,96.80
2022-10-22T05:52:27.078Z,97.01
2022-10-22T05:55:39.488Z,97.08
2022-10-22T05:58:49.769Z,96.98
2022-10-22T06:02:01.642Z,96.94
2022-10-22T06:05:08.630Z,97.10
2022-10-22T06:08:18.965Z,96.45
2022-10-22T06:11:28.878Z,96.00
2022-10-22T06:14:38.491Z,96.18
2022-10-22T06:17:49.031Z,95.95
2022-10-22T06:20:55.749Z,95.50
2022-10-22T06:24:04.667Z,95.71
2022-10-22T06:27:10.734Z,95.48
2022-10-22T06:30:18.879Z,95.36
2022-10-22T06:33:27.063Z,95.31
2022-10-22T06:36:34.378Z,94.79
2022-10-22T06:39:41.752Z,94.66
2022-10-22T06:42:49.416Z,95.03
2022-10-22T06:46:01.101Z,95.16
2022-10-22T06:49:13.458Z,94.92
2022-10-22T06:52:22.367Z,95.10
2022-10-22T06:55:32.736Z,95.39
2022-10-22T06:58:40.964Z,95.79
2022-10-22T07:01:51.334Z,95.94
2022-10-22T07:05:06.954Z,96.32
2022-10-22T07:08:19.012Z,96.50
2022-10-22T07:11:29.327Z,97.04
2022-10-22T07:14:35.126Z,96.96
2022-10-22T07:17:46.215Z,97.13
2022-10-22T07:20:59.143Z,96.35
2022-10-22T07:24:06.849Z,95.65
2022-10-22T07:27:14.687Z,95.56
2022-10-22T07:30:22.201Z,95.99
2022-10-22T07:33:28.912Z,96.88
2022-10-22T07:36:41.281Z,97.06
2022-10-22T07:39:47.419Z,97.20
2022-10-22T07:42:53.814Z,97.75
2022-10-22T07:46:01.178Z,98.04
2022-10-22T07:49:09.059Z,98.32
2022-10-22T07:52:17.421Z,98.69
2022-10-22T07:55:25.605Z,98.60
2022-10-22T07:58:32.462Z,98.64
2022-10-22T08:01:39.175Z,98.71
2022-10-22T08:04:45.779Z,97.98
2022-10-22T08:07:53.886Z,97.22
2022-10-22T08:11:05.199Z,96.44
2022-10-22T08:14:12.354Z,95.36
2022-10-22T08:17:24.200Z,94.06
2022-10-22T08:20:30.731Z,93.35
2022-10-22T08:23:39.380Z,93.53
2022-10-22T08:26:45.687Z,92.87
2022-10-22T08:29:53.649Z,93.35
2022-10-22T08:33:01.068Z,92.70
2022-10-22T08:36:07.555Z,92.66
2022-10-22T08:39:16.220Z,92.61
2022-10-22T08:42:49.373Z,91.69
2022-10-22T08:46:10.072Z,89.75
2022-10-22T08:49:23.784Z,88.82
2022-10-22T08:52:33.538Z,88.85
2022-10-22T08:55:41.956Z,88.28
2022-10-22T08:58:53.549Z,88.62
2022-10-22T09:02:02.580Z,87.74
2022-10-22T09:05:21.133Z,86.04
2022-10-22T09:08:35.140Z,85.50
2022-10-22T09:11:47.694Z,85.82
2022-10-22T09:15:02.299Z,85.77
2022-10-22T09:18:32.929Z,87.11
2022-10-22T09:21:50.839Z,82.35
2022-10-22T09:25:03.875Z,79.45
2022-10-22T09:28:18.011Z,71.83
2022-10-22T09:31:35.109Z,71.12
2022-10-22T09:34:41.196Z,68.65
2022-10-22T09:37:55.358Z,68.67
2022-10-22T09:41:04.394Z,68.26
2022-10-22T09:44:16.365Z,69.17
2022-10-22T09:51:14.508Z,67.92
2022-10-22T09:54:22.595Z,67.25
2022-10-22T09:57:31.792Z,66.72
2022-10-22T10:00:44.345Z,67.47
2022-10-22T10:03:52.159Z,67.29
2022-10-22T10:06:59.339Z,68.39
2022-10-22T10:10:05.783Z,70.22
2022-10-22T10:13:28.564Z,69.35
2022-10-22T10:16:45.950Z,69.89
2022-10-22T10:20:04.495Z,69.39
2022-10-22T10:23:22.965Z,70.22
2022-10-22T10:26:39.048Z,69.75
2022-10-22T10:29:54.382Z,68.38
2022-10-22T10:33:22.148Z,68.17
2022-10-22T10:36:36.240Z,67.93
2022-10-22T10:39:55.307Z,70.13
2022-10-22T10:43:07.088Z,70.57
2022-10-22T10:46:20.503Z,70.26
2022-10-22T10:49:32.636Z,69.73
2022-10-22T10:52:47.346Z,68.37
2022-10-22T10:56:02.928Z,68.04
2022-10-22T10:59:19.152Z,67.86
2022-10-22T11:03:15.086Z,68.42
2022-10-22T11:06:25.768Z,67.21
2022-10-22T11:09:38.371Z,69.59
2022-10-22T11:12:49.451Z,69.06
2022-10-22T11:16:04.811Z,67.17
2022-10-22T11:19:22.837Z,68.80
2022-10-22T11:23:00.320Z,68.17
2022-10-22T11:26:14.933Z,70.43
2022-10-22T11:29:29.389Z,70.13
2022-10-22T11:36:24.334Z,68.85
2022-10-22T11:43:48.996Z,67.61
2022-10-22T11:47:48.456Z,65.50
2022-10-22T11:51:05.441Z,66.46
2022-10-22T11:58:40.237Z,65.81
2022-10-22T12:02:38.777Z,65.35
2022-10-22T12:09:22.088Z,64.30
2022-10-22T12:12:47.504Z,64.32
2022-10-22T12:19:43.390Z,61.90
2022-10-22T12:23:15.892Z,61.47
2022-10-22T12:26:40.346Z,60.92
2022-10-22T12:30:08.456Z,60.97
2022-10-22T12:33:43.659Z,61.30
2022-10-22T12:37:05.015Z,60.84
2022-10-22T12:40:29.896Z,60.57
2022-10-22T12:47:32.183Z,62.65
2022-10-22T12:50:56.727Z,56.91
2022-10-22T12:54:12.307Z,55.71
2022-10-22T12:57:38.793Z,55.72
2022-10-22T13:04:45.388Z,56.65
2022-10-22T13:08:04.586Z,54.90
2022-10-22T13:11:11.835Z,56.98
2022-10-22T13:14:41.695Z,58.55
2022-10-22T13:17:51.930Z,57.11
2022-10-22T13:25:00.701Z,58.94
2022-10-22T13:28:31.951Z,58.79
2022-10-22T13:32:11.864Z,57.01
2022-10-22T13:35:33.739Z,56.26
2022-10-22T13:39:00.078Z,57.10
2022-10-22T13:42:59.289Z,57.29
2022-10-22T13:46:24.346Z,58.51
2022-10-22T13:53:36.940Z,60.31
2022-10-22T13:56:56.575Z,60.81
2022-10-22T14:04:22.148Z,57.85
2022-10-22T14:11:22.927Z,58.13
2022-10-22T14:15:00.652Z,57.89
2022-10-22T14:18:35.164Z,57.75
2022-10-22T14:25:57.709Z,60.79
2022-10-22T14:29:12.079Z,63.21
2022-10-22T14:32:28.867Z,63.38
2022-10-22T14:35:42.424Z,64.55
2022-10-22T14:38:55.644Z,63.84
2022-10-22T14:44:12.058Z,62.88
2022-10-22T14:46:03.032Z,65.35
2022-10-22T14:49:07.864Z,65.77
2022-10-22T14:52:14.843Z,64.69
2022-10-22T14:55:19.897Z,65.45
2022-10-22T14:58:22.758Z,63.36
2022-10-22T15:01:25.520Z,64.71
2022-10-22T15:04:35.819Z,65.76
2022-10-22T15:07:40.667Z,66.12
2022-10-22T15:10:43.607Z,67.33
2022-10-22T15:13:46.351Z,69.19
2022-10-22T15:16:49.560Z,68.61
2022-10-22T15:19:53.205Z,67.01
2022-10-22T15:22:57.745Z,66.33
2022-10-22T15:26:00.898Z,67.06
2022-10-22T15:29:06.977Z,68.22
2022-10-22T15:32:13.509Z,70.92
2022-10-22T15:35:16.580Z,72.96
2022-10-22T15:38:23.521Z,75.40
2022-10-22T15:41:28.721Z,76.26
2022-10-22T15:44:35.373Z,77.56
2022-10-22T15:47:47.681Z,78.97
2022-10-22T15:51:04.128Z,80.33
2022-10-22T15:54:10.212Z,80.77
2022-10-22T15:57:13.370Z,80.92
2022-10-22T16:00:16.753Z,81.50
2022-10-22T16:03:19.610Z,82.00
2022-10-22T16:06:44.714Z,82.27
2022-10-22T16:09:56.670Z,82.31
2022-10-22T16:13:01.243Z,83.71
2022-10-22T16:16:07.352Z,83.41
2022-10-22T16:19:11.765Z,83.81
2022-10-22T16:22:15.688Z,84.03
2022-10-22T16:25:20.073Z,84.08
2022-10-22T16:28:23.100Z,84.39
2022-10-22T16:31:26.524Z,84.56
2022-10-22T16:34:35.339Z,84.34
2022-10-22T16:37:39.167Z,84.62
2022-10-22T16:40:43.612Z,84.50
2022-10-22T16:43:49.337Z,84.61
2022-10-22T16:46:52.010Z,85.33
2022-10-22T16:49:54.975Z,85.38
2022-10-22T16:52:58.051Z,85.59
2022-10-22T16:56:02.936Z,85.75
2022-10-22T16:59:05.623Z,85.99
2022-10-22T17:02:08.360Z,86.08
2022-10-22T17:05:11.084Z,86.15
2022-10-22T17:08:14.482Z,85.84
2022-10-22T17:11:20.384Z,85.64
2022-10-22T17:14:23.293Z,86.16
2022-10-22T17:17:26.409Z,86.31
2022-10-22T17:20:29.152Z,86.68
2022-10-22T17:23:32.138Z,87.11
2022-10-22T17:26:37.384Z,87.26
2022-10-22T17:29:40.073Z,87.12
2022-10-22T17:32:42.784Z,86.82
2022-10-22T17:35:45.437Z,86.61
2022-10-22T17:38:52.819Z,86.97
2022-10-22T17:41:56.861Z,87.41
2022-10-22T17:44:59.865Z,87.65
2022-10-22T17:48:02.971Z,87.50
2022-10-22T17:51:07.764Z,87.62
2022-10-22T17:54:10.644Z,87.56
2022-10-22T17:57:14.968Z,87.71
2022-10-22T18:03:27.912Z,87.82
2022-10-22T18:06:32.230Z,88.09
2022-10-22T18:09:35.219Z,87.83
2022-10-22T18:12:39.664Z,86.76
2022-10-22T18:15:44.356Z,86.49
2022-10-22T18:18:48.538Z,86.81
2022-10-22T18:21:51.756Z,86.76
2022-10-22T18:24:54.726Z,86.95
2022-10-22T18:27:59.315Z,86.58
2022-10-22T18:31:06.868Z,86.72
2022-10-22T18:34:09.629Z,86.42
2022-10-22T18:37:13.363Z,86.45
2022-10-22T18:40:18.762Z,86.47
2022-10-22T18:43:23.218Z,87.13
2022-10-22T18:46:27.156Z,87.45
2022-10-22T18:49:30.266Z,87.45
2022-10-22T18:52:33.705Z,87.60
2022-10-22T18:55:39.398Z,87.21
2022-10-22T18:58:46.971Z,87.27
2022-10-22T19:01:51.449Z,87.56
2022-10-22T19:04:54.311Z,87.78
2022-10-22T19:07:57.179Z,88.33
2022-10-22T19:11:00.003Z,88.84
2022-10-22T19:14:04.282Z,89.30
2022-10-22T19:17:07.131Z,89.59
2022-10-22T19:20:10.982Z,89.78
2022-10-22T19:23:18.488Z,89.84
2022-10-22T19:26:25.560Z,90.20
2022-10-22T19:29:29.632Z,90.16
2022-10-22T19:32:32.564Z,90.45
2022-10-22T19:35:37.411Z,89.79
2022-10-22T19:38:41.494Z,90.18
2022-10-22T19:41:44.623Z,89.86
2022-10-22T19:44:49.133Z,90.11
2022-10-22T19:47:52.324Z,90.34
2022-10-22T19:50:59.647Z,90.32
2022-10-22T19:54:04.710Z,90.32
2022-10-22T19:57:07.868Z,90.35
2022-10-22T20:00:13.448Z,90.16
2022-10-22T20:03:16.607Z,90.45
2022-10-22T20:06:20.435Z,90.59
2022-10-22T20:09:23.429Z,90.59
2022-10-22T20:12:26.458Z,91.06
2022-10-22T20:15:32.781Z,91.01
2022-10-22T20:18:35.696Z,91.07
2022-10-22T20:21:40.291Z,90.88
2022-10-22T20:24:43.173Z,91.02
2022-10-22T20:27:45.944Z,90.71
2022-10-22T20:30:50.067Z,90.99
2022-10-22T20:33:53.278Z,91.14
2022-10-22T20:36:56.214Z,91.21
2022-10-22T20:39:59.154Z,91.54
2022-10-22T20:43:02.432Z,91.22
2022-10-22T20:46:06.969Z,91.69
2022-10-22T20:49:11.866Z,91.88
2022-10-22T20:52:14.711Z,91.91
2022-10-22T20:55:18.028Z,92.23
2022-10-22T20:58:24.456Z,91.92
2022-10-22T21:01:34.474Z,92.09
2022-10-22T21:04:39.491Z,92.07
2022-10-22T21:07:44.834Z,92.32
2022-10-22T21:10:49.152Z,93.56
2022-10-22T21:13:52.398Z,94.23
2022-10-22T21:16:56.955Z,93.16
2022-10-22T21:20:00.192Z,92.88
2022-10-22T21:23:03.375Z,92.52
2022-10-22T21:26:06.592Z,92.48
2022-10-22T21:29:09.573Z,92.68
2022-10-22T21:32:13.827Z,93.10
2022-10-22T21:35:16.922Z,93.41
2022-10-22T21:38:20.723Z,93.66
2022-10-22T21:41:25.047Z,93.94
2022-10-22T21:44:28.234Z,94.05
2022-10-22T21:47:32.381Z,94.44
2022-10-22T21:50:35.167Z,94.64
2022-10-22T21:53:38.588Z,94.78
2022-10-22T21:56:43.962Z,94.77
2022-10-22T21:59:46.679Z,94.41
2022-10-22T22:02:51.158Z,94.00
2022-10-22T22:05:58.878Z,94.07
2022-10-22T22:09:03.228Z,93.99
2022-10-22T22:12:06.264Z,94.44
2022-10-22T22:15:10.234Z,94.20
2022-10-22T22:18:14.793Z,94.36
2022-10-22T22:21:20.641Z,94.27
2022-10-22T22:24:23.651Z,94.99
2022-10-22T22:27:28.924Z,94.60
2022-10-22T22:30:32.019Z,94.99
2022-10-22T22:33:36.340Z,95.45
2022-10-22T22:36:41.512Z,94.91
2022-10-22T22:39:44.499Z,95.09
2022-10-22T22:42:47.437Z,95.05
2022-10-22T22:46:00.015Z,94.94
2022-10-22T22:49:05.522Z,94.68
2022-10-22T22:52:08.319Z,94.92
2022-10-22T22:55:11.372Z,94.59
2022-10-22T22:58:14.118Z,94.80
2022-10-22T23:01:20.962Z,94.49
2022-10-22T23:04:25.286Z,94.65
2022-10-22T23:07:28.022Z,94.55
2022-10-22T23:10:30.746Z,94.58
2022-10-22T23:13:33.831Z,94.60
2022-10-22T23:16:38.999Z,94.95
2022-10-22T23:19:43.855Z,95.20
2022-10-22T23:22:46.620Z,94.48
2022-10-22T23:25:49.804Z,94.04
2022-10-22T23:28:52.766Z,94.57
2022-10-22T23:31:56.562Z,95.53
2022-10-22T23:35:00.665Z,96.13
2022-10-22T23:38:04.282Z,95.76
2022-10-22T23:41:08.176Z,95.18
2022-10-22T23:44:11.204Z,94.79
2022-10-22T23:47:13.917Z,94.96
2022-10-22T23:50:18.272Z,95.61
2022-10-22T23:53:21.136Z,96.82
2022-10-22T23:56:24.293Z,97.46
2022-10-22T23:59:27.132Z,97.27
